Time;durP1;ratioP1;P1;durP2;ratioP2;P2;SDS_P1;SDS_P2;PMS_P1;PMS_P2;Temp;Humidity;BMP_temperature;BMP_pressure;BME280_temperature;BME280_humidity;BME280_pressure;Samples;Min_cycle;Max_cycle;Signal;HPM_P1;HPM_P2
2023/04/02 00:00:33;;;;;;;;;;;4.40;99.90;;;;;;4988615;28;209894;-70
2023/04/02 00:03:00;;;;;;;;;;;4.40;99.90;;;;;;5043591;28;19932;-70
2023/04/02 00:05:29;;;;;;;;;;;4.30;99.90;;;;;;4979179;28;207283;-72
2023/04/02 00:08:16;;;;;;;;;;;4.30;99.90;;;;;;5062523;28;20027;-72
2023/04/02 00:10:47;;;;;;;;;;;4.30;99.90;;;;;;4965909;28;209815;-70
2023/04/02 00:13:21;;;;;;;;;;;4.20;99.90;;;;;;5040264;28;19931;-69
2023/04/02 00:15:48;;;;;;;;;;;4.20;99.90;;;;;;4984945;28;227789;-69
2023/04/02 00:18:15;;;;;;;;;;;4.20;99.90;;;;;;5046748;28;20381;-71
2023/04/02 00:20:43;;;;;;;;;;;4.20;99.90;;;;;;5002438;28;212771;-71
2023/04/02 00:23:10;;;;;;;;;;;4.30;99.90;;;;;;5047249;28;19924;-70
2023/04/02 00:25:41;;;;;;;;;;;4.20;99.90;;;;;;4994147;28;206127;-69
2023/04/02 00:28:15;;;;;;;;;;;4.20;99.90;;;;;;5041843;28;19932;-72
2023/04/02 00:30:45;;;;;;;;;;;4.20;99.90;;;;;;4995157;28;211483;-70
2023/04/02 00:33:14;;;;;;;;;;;4.20;99.90;;;;;;5033729;28;21713;-71
2023/04/02 00:35:40;;;;;;;;;;;4.20;99.90;;;;;;4997031;28;210814;-70
2023/04/02 00:38:09;;;;;;;;;;;4.20;99.90;;;;;;5048330;28;19924;-69
2023/04/02 00:40:37;;;;;;;;;;;4.20;99.90;;;;;;4984081;28;212505;-69
2023/04/02 00:43:05;;;;;;;;;;;4.10;99.90;;;;;;5037189;28;20050;-69
2023/04/02 00:45:35;;;;;;;;;;;4.10;99.90;;;;;;4991572;28;207507;-68
2023/04/02 00:48:14;;;;;;;;;;;4.10;99.90;;;;;;5037299;28;21329;-71
2023/04/02 00:50:41;;;;;;;;;;;4.10;99.90;;;;;;5004465;28;208754;-71
2023/04/02 00:53:10;;;;;;;;;;;4.00;99.90;;;;;;5050773;28;20808;-70
2023/04/02 00:55:38;;;;;;;;;;;4.00;99.90;;;;;;4996722;28;209622;-70
2023/04/02 00:58:12;;;;;;;;;;;4.00;99.90;;;;;;5043368;28;19939;-70
2023/04/02 01:00:39;;;;;;;;;;;4.00;99.90;;;;;;4975044;28;206854;-68
2023/04/02 01:03:11;;;;;;;;;;;3.90;99.90;;;;;;5038655;28;19928;-71
2023/04/02 01:05:37;;;;;;;;;;;3.90;99.90;;;;;;4962012;28;227985;-69
2023/04/02 01:08:03;;;;;;;;;;;3.70;99.90;;;;;;5038012;28;20415;-70
2023/04/02 01:10:37;;;;;;;;;;;3.60;99.90;;;;;;4992475;28;213844;-71
2023/04/02 01:13:03;;;;;;;;;;;3.50;99.90;;;;;;5050387;28;19927;-71
2023/04/02 01:15:32;;;;;;;;;;;3.40;99.90;;;;;;4988691;28;210144;-70
2023/04/02 01:18:25;;;;;;;;;;;3.30;99.90;;;;;;5039153;28;22068;-69
2023/04/02 01:20:51;;;;;;;;;;;3.30;99.90;;;;;;4998327;28;207245;-70
2023/04/02 01:23:23;;;;;;;;;;;3.10;99.90;;;;;;5052324;28;19935;-70
2023/04/02 01:25:57;;;;;;;;;;;3.10;99.90;;;;;;4998180;28;235285;-70
2023/04/02 01:28:28;;;;;;;;;;;3.00;99.90;;;;;;5048100;28;19951;-72
2023/04/02 01:30:55;;;;;;;;;;;2.90;99.90;;;;;;4979007;28;203966;-69
2023/04/02 01:33:27;;;;;;;;;;;2.90;99.90;;;;;;5042818;28;20046;-69
2023/04/02 01:36:08;;;;;;;;;;;2.80;99.90;;;;;;4978027;28;207965;-71
2023/04/02 01:38:39;;;;;;;;;;;2.80;99.90;;;;;;5038273;28;20537;-71
2023/04/02 01:41:11;;;;;;;;;;;2.80;99.90;;;;;;4991154;28;212057;-71
2023/04/02 01:43:36;;;;;;;;;;;2.70;99.90;;;;;;5036040;28;19924;-69
2023/04/02 01:46:22;;;;;;;;;;;2.70;99.90;;;;;;4982687;28;205774;-71
2023/04/02 01:48:48;;;;;;;;;;;2.70;99.90;;;;;;5046454;28;19932;-69
2023/04/02 01:51:31;;;;;;;;;;;2.60;99.90;;;;;;5002688;28;207341;-69
2023/04/02 01:54:01;;;;;;;;;;;2.60;99.90;;;;;;5055821;28;19928;-71
2023/04/02 01:56:29;;;;;;;;;;;2.50;99.90;;;;;;4964350;28;185050;-71
2023/04/02 01:58:56;;;;;;;;;;;2.50;99.90;;;;;;5057309;28;19929;-69
2023/04/02 02:01:24;;;;;;;;;;;2.40;99.90;;;;;;4962996;28;207885;-68
2023/04/02 02:03:50;;;;;;;;;;;2.40;99.90;;;;;;5023335;28;19928;-71
2023/04/02 02:06:17;;;;;;;;;;;2.40;99.90;;;;;;4967829;28;207065;-70
2023/04/02 02:08:55;;;;;;;;;;;2.40;99.90;;;;;;5039951;28;19924;-70
2023/04/02 02:11:22;;;;;;;;;;;2.30;99.90;;;;;;4996379;28;207446;-68
2023/04/02 02:14:11;;;;;;;;;;;2.30;99.90;;;;;;5042067;28;19943;-71
2023/04/02 02:16:40;;;;;;;;;;;2.30;99.90;;;;;;4964254;28;128040;-70
2023/04/02 02:19:12;;;;;;;;;;;2.20;99.90;;;;;;5042410;28;19931;-69
2023/04/02 02:21:40;;;;;;;;;;;2.20;99.90;;;;;;4969928;28;130764;-70
2023/04/02 02:24:13;;;;;;;;;;;2.20;99.90;;;;;;5040757;28;20718;-71
2023/04/02 02:26:40;;;;;;;;;;;2.10;99.90;;;;;;4995828;28;205837;-68
2023/04/02 02:29:07;;;;;;;;;;;2.10;99.90;;;;;;5040626;28;20846;-70
2023/04/02 02:31:36;;;;;;;;;;;2.10;99.90;;;;;;4967034;28;206771;-70
2023/04/02 02:34:06;;;;;;;;;;;2.00;99.90;;;;;;5038651;28;19936;-71
2023/04/02 02:36:58;;;;;;;;;;;2.00;99.90;;;;;;4993050;28;215978;-69
2023/04/02 02:39:29;;;;;;;;;;;2.00;99.90;;;;;;5040052;28;20900;-70
2023/04/02 02:42:01;;;;;;;;;;;2.00;99.90;;;;;;4973055;28;74254;-71
2023/04/02 02:44:28;;;;;;;;;;;1.90;99.90;;;;;;5028298;28;205876;-71
2023/04/02 02:47:00;;;;;;;;;;;1.90;99.90;;;;;;5003511;28;121159;-69
2023/04/02 02:49:27;;;;;;;;;;;1.90;99.90;;;;;;5035640;28;19936;-69
2023/04/02 02:52:05;;;;;;;;;;;1.90;99.90;;;;;;4967525;28;93979;-68
2023/04/02 02:54:31;;;;;;;;;;;1.80;99.90;;;;;;5028634;28;207705;-69
2023/04/02 02:57:01;;;;;;;;;;;1.80;99.90;;;;;;5012276;28;256303;-70
2023/04/02 02:59:28;;;;;;;;;;;1.70;99.90;;;;;;5037455;28;211601;-68
2023/04/02 03:01:54;;;;;;;;;;;1.70;99.90;;;;;;4988213;28;55464;-71
2023/04/02 03:04:21;;;;;;;;;;;1.70;99.90;;;;;;5046260;28;19936;-69
2023/04/02 03:06:57;;;;;;;;;;;1.70;99.90;;;;;;4983994;28;239602;-69
2023/04/02 03:09:32;;;;;;;;;;;1.70;99.90;;;;;;5046451;28;19939;-71
2023/04/02 03:12:05;;;;;;;;;;;1.60;99.90;;;;;;4967229;28;150890;-69
2023/04/02 03:14:41;;;;;;;;;;;1.60;99.90;;;;;;5022047;28;216180;-70
2023/04/02 03:17:15;;;;;;;;;;;1.60;99.90;;;;;;5023176;28;19928;-70
2023/04/02 03:19:46;;;;;;;;;;;1.50;99.90;;;;;;4995640;28;215654;-70
2023/04/02 03:22:23;;;;;;;;;;;1.50;99.90;;;;;;5046329;28;20609;-70
2023/04/02 03:24:49;;;;;;;;;;;1.50;99.90;;;;;;4983846;28;212716;-70
2023/04/02 03:27:25;;;;;;;;;;;1.50;99.90;;;;;;5057654;28;19935;-70
2023/04/02 03:29:57;;;;;;;;;;;1.50;99.90;;;;;;4989933;28;206987;-71
2023/04/02 03:32:29;;;;;;;;;;;1.50;99.90;;;;;;5044648;28;20397;-69
2023/04/02 03:35:00;;;;;;;;;;;1.50;99.90;;;;;;4992423;28;209714;-69
2023/04/02 03:37:33;;;;;;;;;;;1.50;99.90;;;;;;5056345;28;19924;-70
2023/04/02 03:40:28;;;;;;;;;;;1.50;99.90;;;;;;4984919;28;216204;-70
2023/04/02 03:42:59;;;;;;;;;;;1.50;99.90;;;;;;5030449;28;19928;-69
2023/04/02 03:45:32;;;;;;;;;;;1.50;99.90;;;;;;5009800;28;42562;-71
2023/04/02 03:47:58;;;;;;;;;;;1.50;99.90;;;;;;5051347;28;20316;-70
2023/04/02 03:50:30;;;;;;;;;;;1.50;99.90;;;;;;4996458;28;234412;-70
2023/04/02 03:52:57;;;;;;;;;;;1.50;99.90;;;;;;5044854;28;19935;-71
2023/04/02 03:55:24;;;;;;;;;;;1.40;99.90;;;;;;4996599;28;210106;-70
2023/04/02 03:57:50;;;;;;;;;;;1.40;99.90;;;;;;5056126;28;19924;-72
2023/04/02 04:00:24;;;;;;;;;;;1.30;99.90;;;;;;4989391;28;207553;-70
2023/04/02 04:02:53;;;;;;;;;;;1.30;99.90;;;;;;5044491;28;19932;-73
2023/04/02 04:05:27;;;;;;;;;;;1.30;99.90;;;;;;4999499;28;209836;-72
2023/04/02 04:07:55;;;;;;;;;;;1.30;99.90;;;;;;5062043;28;19928;-72
2023/04/02 04:10:24;;;;;;;;;;;1.20;99.90;;;;;;5007649;28;207200;-74
2023/04/02 04:12:51;;;;;;;;;;;1.20;99.90;;;;;;5052363;28;19927;-73
2023/04/02 04:15:24;;;;;;;;;;;1.20;99.90;;;;;;5004935;28;240249;-73
2023/04/02 04:17:56;;;;;;;;;;;1.20;99.90;;;;;;5054970;28;19925;-73
2023/04/02 04:20:24;;;;;;;;;;;1.10;99.90;;;;;;5022783;28;209140;-73
2023/04/02 04:22:54;;;;;;;;;;;1.10;99.90;;;;;;5060487;28;19927;-73
2023/04/02 04:25:28;;;;;;;;;;;1.10;99.90;;;;;;5005429;28;209337;-73
2023/04/02 04:28:06;;;;;;;;;;;1.10;99.90;;;;;;5057072;28;20373;-73
2023/04/02 04:30:41;;;;;;;;;;;1.00;99.90;;;;;;5007372;28;208922;-73
2023/04/02 04:33:14;;;;;;;;;;;1.00;99.90;;;;;;5063772;28;20332;-72
2023/04/02 04:35:45;;;;;;;;;;;1.00;99.90;;;;;;5004544;28;209870;-73
2023/04/02 04:38:14;;;;;;;;;;;1.00;99.90;;;;;;5071030;28;19920;-72
2023/04/02 04:40:49;;;;;;;;;;;1.00;99.90;;;;;;5002432;28;208782;-73
2023/04/02 04:43:16;;;;;;;;;;;1.00;99.90;;;;;;5057797;28;19920;-73
2023/04/02 04:46:04;;;;;;;;;;;1.00;99.90;;;;;;5001485;28;211250;-73
2023/04/02 04:48:30;;;;;;;;;;;1.00;99.90;;;;;;5057446;28;19935;-73
2023/04/02 04:51:01;;;;;;;;;;;1.00;99.90;;;;;;5009992;28;221354;-72
2023/04/02 04:53:28;;;;;;;;;;;1.00;99.90;;;;;;5061446;28;19920;-73
2023/04/02 04:55:55;;;;;;;;;;;1.00;99.90;;;;;;5010985;28;210269;-73
2023/04/02 04:58:30;;;;;;;;;;;0.90;99.90;;;;;;5064212;28;19940;-73
2023/04/02 05:01:23;;;;;;;;;;;1.00;99.90;;;;;;5028849;28;95488;-73
2023/04/02 05:04:07;;;;;;;;;;;0.90;99.90;;;;;;5059648;28;19931;-73
2023/04/02 05:06:39;;;;;;;;;;;0.90;99.90;;;;;;5007529;28;53779;-72
2023/04/02 05:09:28;;;;;;;;;;;0.90;99.90;;;;;;5058405;28;19955;-74
2023/04/02 05:12:04;;;;;;;;;;;0.90;99.90;;;;;;5018229;28;46807;-73
2023/04/02 05:14:34;;;;;;;;;;;0.90;99.90;;;;;;5050417;28;208259;-72
2023/04/02 05:17:06;;;;;;;;;;;0.90;99.90;;;;;;5020690;28;19924;-73
2023/04/02 05:19:40;;;;;;;;;;;0.90;99.90;;;;;;5016707;28;209761;-73
2023/04/02 05:22:12;;;;;;;;;;;0.90;99.90;;;;;;5045992;28;20294;-73
2023/04/02 05:24:38;;;;;;;;;;;1.00;99.90;;;;;;5010946;28;207052;-71
2023/04/02 05:27:26;;;;;;;;;;;1.00;99.90;;;;;;5085339;28;19924;-72
2023/04/02 05:29:56;;;;;;;;;;;1.00;99.90;;;;;;4991055;28;207708;-73
2023/04/02 05:32:27;;;;;;;;;;;1.00;99.90;;;;;;5064654;28;19925;-73
2023/04/02 05:34:53;;;;;;;;;;;1.10;99.90;;;;;;5005608;28;208488;-72
2023/04/02 05:37:21;;;;;;;;;;;1.10;99.90;;;;;;5068420;28;19925;-71
2023/04/02 05:39:52;;;;;;;;;;;1.10;99.90;;;;;;5005679;28;213047;-73
2023/04/02 05:42:21;;;;;;;;;;;1.30;99.90;;;;;;5054457;28;19925;-72
2023/04/02 05:44:56;;;;;;;;;;;1.40;99.90;;;;;;4998553;28;210223;-73
2023/04/02 05:47:23;;;;;;;;;;;1.30;99.90;;;;;;5069156;28;20393;-73
2023/04/02 05:49:52;;;;;;;;;;;1.30;99.90;;;;;;5003025;28;207865;-72
2023/04/02 05:52:22;;;;;;;;;;;1.30;99.90;;;;;;5057316;28;19939;-73
2023/04/02 05:54:55;;;;;;;;;;;1.30;99.90;;;;;;5013784;28;207860;-72
2023/04/02 05:57:23;;;;;;;;;;;1.30;99.90;;;;;;5058134;28;19948;-72
2023/04/02 05:59:54;;;;;;;;;;;1.30;99.90;;;;;;5011079;28;218295;-71
2023/04/02 06:02:22;;;;;;;;;;;1.40;99.90;;;;;;5051343;28;19927;-73
2023/04/02 06:04:51;;;;;;;;;;;1.40;99.90;;;;;;4992565;28;206747;-73
2023/04/02 06:07:20;;;;;;;;;;;1.50;99.90;;;;;;5041575;28;19924;-73
2023/04/02 06:09:51;;;;;;;;;;;1.70;99.90;;;;;;5001067;28;211822;-72
2023/04/02 06:12:17;;;;;;;;;;;2.10;99.90;;;;;;5065962;28;20317;-73
2023/04/02 06:14:44;;;;;;;;;;;2.50;99.90;;;;;;5001124;28;214328;-72
2023/04/02 06:17:13;;;;;;;;;;;2.70;99.90;;;;;;5053856;28;20549;-73
2023/04/02 06:19:39;;;;;;;;;;;3.30;99.90;;;;;;5010824;28;213439;-72
2023/04/02 06:22:14;;;;;;;;;;;3.80;99.90;;;;;;5072823;28;19924;-73
2023/04/02 06:24:40;;;;;;;;;;;4.30;99.90;;;;;;5025698;28;191488;-73
2023/04/02 06:27:10;;;;;;;;;;;4.30;99.90;;;;;;5072888;28;20508;-72
2023/04/02 06:29:39;;;;;;;;;;;4.30;99.90;;;;;;5005700;28;216260;-71
2023/04/02 06:32:07;;;;;;;;;;;4.70;99.90;;;;;;5069492;28;19925;-72
2023/04/02 06:34:35;;;;;;;;;;;5.00;99.90;;;;;;5022142;28;215797;-72
2023/04/02 06:37:03;;;;;;;;;;;5.00;99.90;;;;;;5047168;28;19924;-73
2023/04/02 06:39:29;;;;;;;;;;;5.20;99.90;;;;;;5044351;28;212020;-72
2023/04/02 06:41:59;;;;;;;;;;;5.20;99.90;;;;;;5025810;28;19931;-72
2023/04/02 06:44:27;;;;;;;;;;;5.40;99.90;;;;;;5063629;28;20586;-72
2023/04/02 06:46:56;;;;;;;;;;;5.40;99.90;;;;;;5011368;28;186406;-72
2023/04/02 06:49:25;;;;;;;;;;;5.60;99.90;;;;;;5060791;28;19921;-72
2023/04/02 06:51:52;;;;;;;;;;;5.60;99.90;;;;;;5011501;28;223206;-73
2023/04/02 06:54:18;;;;;;;;;;;6.00;99.90;;;;;;5062767;28;19929;-72
2023/04/02 06:56:46;;;;;;;;;;;6.20;99.90;;;;;;5014410;28;207985;-73
2023/04/02 06:59:12;;;;;;;;;;;6.30;99.90;;;;;;5061741;28;19920;-74
2023/04/02 07:01:50;;;;;;;;;;;6.40;99.90;;;;;;4981601;28;215002;-72
2023/04/02 07:04:17;;;;;;;;;;;6.40;99.90;;;;;;5060072;28;19940;-72
2023/04/02 07:06:43;;;;;;;;;;;6.50;99.90;;;;;;4987809;28;208405;-72
2023/04/02 07:09:09;;;;;;;;;;;6.50;99.90;;;;;;5044084;28;20404;-73
2023/04/02 07:11:35;;;;;;;;;;;6.80;99.90;;;;;;5009262;28;207584;-72
2023/04/02 07:14:01;;;;;;;;;;;6.70;99.90;;;;;;5055165;28;19921;-73
2023/04/02 07:16:29;;;;;;;;;;;6.60;99.90;;;;;;5011170;28;220079;-72
2023/04/02 07:18:54;;;;;;;;;;;6.90;99.90;;;;;;5055733;28;19955;-73
2023/04/02 07:21:21;;;;;;;;;;;6.80;99.90;;;;;;5000287;28;208067;-73
2023/04/02 07:23:47;;;;;;;;;;;7.00;99.90;;;;;;5059314;28;19930;-74
2023/04/02 07:26:14;;;;;;;;;;;7.10;99.90;;;;;;5007793;28;218297;-70
2023/04/02 07:28:40;;;;;;;;;;;7.20;99.90;;;;;;5057316;28;19935;-73
2023/04/02 07:31:23;;;;;;;;;;;7.30;99.90;;;;;;5009469;28;207438;-75
2023/04/02 07:33:49;;;;;;;;;;;7.30;99.90;;;;;;5059624;28;19931;-75
2023/04/02 07:36:16;;;;;;;;;;;7.20;99.90;;;;;;5006317;28;157259;-73
2023/04/02 07:38:42;;;;;;;;;;;7.10;99.90;;;;;;5077607;28;19921;-73
2023/04/02 07:41:08;;;;;;;;;;;7.10;99.90;;;;;;5010181;28;209325;-74
2023/04/02 07:43:34;;;;;;;;;;;7.20;99.90;;;;;;5063199;28;19920;-72
2023/04/02 07:46:01;;;;;;;;;;;7.40;99.90;;;;;;5005769;28;206538;-74
2023/04/02 07:48:27;;;;;;;;;;;7.70;99.90;;;;;;5057485;28;19936;-72
2023/04/02 07:50:53;;;;;;;;;;;7.90;99.90;;;;;;5008275;28;208932;-71
2023/04/02 07:53:29;;;;;;;;;;;7.70;99.90;;;;;;5061511;28;19951;-72
2023/04/02 07:55:56;;;;;;;;;;;7.30;99.90;;;;;;5009934;28;214602;-72
2023/04/02 07:58:22;;;;;;;;;;;7.00;99.90;;;;;;5044850;28;19925;-73
2023/04/02 08:00:48;;;;;;;;;;;7.00;99.90;;;;;;4997959;28;207393;-73
2023/04/02 08:03:15;;;;;;;;;;;7.20;99.90;;;;;;5055603;28;19935;-73
2023/04/02 08:05:41;;;;;;;;;;;7.60;99.90;;;;;;4976215;28;207149;-73
2023/04/02 08:08:07;;;;;;;;;;;7.10;99.90;;;;;;5053512;28;20333;-72
2023/04/02 08:10:33;;;;;;;;;;;7.50;99.90;;;;;;4996798;28;209170;-73
2023/04/02 08:12:59;;;;;;;;;;;7.00;99.90;;;;;;5048379;28;19928;-73
2023/04/02 08:15:25;;;;;;;;;;;7.60;99.90;;;;;;4992171;28;216802;-73
2023/04/02 08:17:52;;;;;;;;;;;7.40;99.90;;;;;;5042646;28;19928;-72
2023/04/02 08:20:20;;;;;;;;;;;7.40;99.90;;;;;;4988218;28;187181;-73
2023/04/02 08:22:46;;;;;;;;;;;7.50;99.90;;;;;;5041727;28;19929;-72
2023/04/02 08:25:12;;;;;;;;;;;8.10;99.90;;;;;;4994938;28;211794;-73
2023/04/02 08:27:38;;;;;;;;;;;8.10;99.90;;;;;;5048863;28;20380;-73
2023/04/02 08:30:05;;;;;;;;;;;8.20;99.90;;;;;;4986695;28;222907;-72
2023/04/02 08:32:31;;;;;;;;;;;8.70;99.90;;;;;;5061534;28;19940;-73
2023/04/02 08:34:56;;;;;;;;;;;8.90;99.90;;;;;;4982294;28;229294;-74
2023/04/02 08:37:22;;;;;;;;;;;9.10;99.60;;;;;;5040519;28;19929;-73
2023/04/02 08:39:48;;;;;;;;;;;9.30;99.20;;;;;;4981867;28;209986;-77
2023/04/02 08:42:22;;;;;;;;;;;9.70;99.80;;;;;;5020374;28;19935;-73
2023/04/02 08:44:56;;;;;;;;;;;9.90;99.30;;;;;;5002058;28;216984;-73
2023/04/02 08:47:24;;;;;;;;;;;10.30;99.20;;;;;;5056358;28;19932;-73
2023/04/02 08:49:56;;;;;;;;;;;10.50;97.80;;;;;;4998438;28;207174;-74
2023/04/02 08:52:24;;;;;;;;;;;10.50;97.50;;;;;;5011296;28;19936;-74
2023/04/02 08:54:50;;;;;;;;;;;10.80;97.60;;;;;;4995084;28;207495;-73
2023/04/02 08:57:26;;;;;;;;;;;10.60;97.40;;;;;;5042493;28;19936;-74
2023/04/02 08:59:56;;;;;;;;;;;10.80;97.40;;;;;;5014819;28;213591;-73
2023/04/02 09:02:28;;;;;;;;;;;11.30;98.00;;;;;;5071675;28;19920;-74
2023/04/02 09:04:56;;;;;;;;;;;11.40;96.50;;;;;;4990298;28;213034;-74
2023/04/02 09:07:21;;;;;;;;;;;11.40;97.10;;;;;;5067283;28;19928;-72
2023/04/02 09:09:48;;;;;;;;;;;11.60;96.70;;;;;;5002430;28;212080;-72
2023/04/02 09:12:19;;;;;;;;;;;11.60;96.50;;;;;;5055558;28;20015;-74
2023/04/02 09:14:51;;;;;;;;;;;12.30;96.20;;;;;;4998864;28;206991;-74
2023/04/02 09:17:18;;;;;;;;;;;12.30;96.50;;;;;;5068676;28;20401;-72
2023/04/02 09:19:50;;;;;;;;;;;12.00;95.50;;;;;;4998214;28;212731;-72
2023/04/02 09:22:19;;;;;;;;;;;12.00;95.80;;;;;;5061705;28;19935;-73
2023/04/02 09:24:49;;;;;;;;;;;12.10;95.80;;;;;;4999259;28;214694;-73
2023/04/02 09:27:17;;;;;;;;;;;12.20;95.40;;;;;;5053772;28;19928;-73
2023/04/02 09:29:44;;;;;;;;;;;12.30;95.10;;;;;;5004920;28;207465;-73
2023/04/02 09:32:40;;;;;;;;;;;11.70;95.30;;;;;;5053477;28;19968;-69
2023/04/02 09:35:08;;;;;;;;;;;11.10;96.00;;;;;;4998766;28;209241;-68
2023/04/02 09:37:36;;;;;;;;;;;12.00;96.10;;;;;;5057244;28;19936;-69
2023/04/02 09:40:20;;;;;;;;;;;11.70;95.70;;;;;;5006201;28;207858;-69
2023/04/02 09:42:46;;;;;;;;;;;12.40;95.90;;;;;;5051695;28;19932;-69
2023/04/02 09:45:20;;;;;;;;;;;12.60;94.80;;;;;;5002927;28;210247;-69
2023/04/02 09:47:46;;;;;;;;;;;13.10;94.80;;;;;;5056452;28;19961;-69
2023/04/02 09:50:14;;;;;;;;;;;13.40;95.00;;;;;;5000526;28;209946;-70
2023/04/02 09:52:39;;;;;;;;;;;13.60;94.30;;;;;;5070206;28;19925;-68
2023/04/02 09:55:15;;;;;;;;;;;12.70;93.90;;;;;;4999273;28;213346;-69
2023/04/02 09:57:41;;;;;;;;;;;12.80;94.00;;;;;;5069570;28;19943;-70
2023/04/02 10:00:11;;;;;;;;;;;13.30;94.50;;;;;;5002462;28;207434;-70
2023/04/02 10:02:37;;;;;;;;;;;14.00;94.10;;;;;;5068726;28;19928;-69
2023/04/02 10:05:05;;;;;;;;;;;14.30;93.90;;;;;;5017925;28;210677;-69
2023/04/02 10:07:42;;;;;;;;;;;13.70;93.70;;;;;;5089263;28;19929;-69
2023/04/02 10:10:26;;;;;;;;;;;13.40;94.30;;;;;;5003770;28;213647;-71
2023/04/02 10:13:01;;;;;;;;;;;13.80;93.30;;;;;;5060737;28;19925;-69
2023/04/02 10:15:31;;;;;;;;;;;14.50;93.90;;;;;;4994397;28;209414;-70
2023/04/02 10:18:05;;;;;;;;;;;13.90;94.30;;;;;;5055602;28;20567;-69
2023/04/02 10:20:32;;;;;;;;;;;13.20;93.60;;;;;;5009671;28;207110;-69
2023/04/02 10:22:58;;;;;;;;;;;13.40;94.50;;;;;;5058086;28;19936;-70
2023/04/02 10:25:26;;;;;;;;;;;13.30;93.80;;;;;;5007359;28;207634;-69
2023/04/02 10:28:07;;;;;;;;;;;12.80;93.70;;;;;;5066569;28;19975;-67
2023/04/02 10:30:50;;;;;;;;;;;12.50;93.90;;;;;;4997237;28;207433;-68
2023/04/02 10:33:20;;;;;;;;;;;12.30;95.30;;;;;;5058100;28;20045;-69
2023/04/02 10:35:46;;;;;;;;;;;12.80;94.10;;;;;;5006639;28;209106;-69
2023/04/02 10:38:23;;;;;;;;;;;13.20;94.40;;;;;;5058904;28;20313;-70
2023/04/02 10:40:51;;;;;;;;;;;13.30;93.80;;;;;;4991822;28;207269;-70
2023/04/02 10:43:20;;;;;;;;;;;13.60;94.00;;;;;;5059187;28;20609;-69
2023/04/02 10:45:49;;;;;;;;;;;13.70;93.60;;;;;;5008554;28;210762;-69
2023/04/02 10:48:21;;;;;;;;;;;14.00;93.30;;;;;;5062955;28;19928;-70
2023/04/02 10:50:52;;;;;;;;;;;14.70;94.80;;;;;;5011450;28;210502;-69
2023/04/02 10:53:19;;;;;;;;;;;13.80;92.60;;;;;;5065021;28;20380;-69
2023/04/02 10:55:57;;;;;;;;;;;13.70;93.50;;;;;;5007908;28;208931;-69
2023/04/02 10:58:25;;;;;;;;;;;14.00;93.80;;;;;;5064853;28;19929;-69
2023/04/02 11:00:54;;;;;;;;;;;14.10;93.30;;;;;;4999783;28;209453;-69
2023/04/02 11:03:41;;;;;;;;;;;14.60;94.10;;;;;;5064947;28;19935;-70
2023/04/02 11:06:15;;;;;;;;;;;14.70;92.70;;;;;;4990393;28;210027;-71
2023/04/02 11:08:43;;;;;;;;;;;14.90;93.50;;;;;;5072211;28;19939;-70
2023/04/02 11:11:33;;;;;;;;;;;14.80;92.90;;;;;;5017824;28;215194;-69
2023/04/02 11:14:18;;;;;;;;;;;14.70;93.20;;;;;;5064473;28;19939;-69
2023/04/02 11:16:47;;;;;;;;;;;15.40;93.60;;;;;;5019138;28;206829;-70
2023/04/02 11:19:15;;;;;;;;;;;15.60;93.40;;;;;;5059509;28;19969;-69
2023/04/02 11:21:46;;;;;;;;;;;15.00;92.40;;;;;;5016476;28;217225;-69
2023/04/02 11:24:31;;;;;;;;;;;15.10;93.00;;;;;;5063629;28;19921;-69
2023/04/02 11:27:05;;;;;;;;;;;14.40;92.50;;;;;;5002250;28;25199;-69
2023/04/02 11:29:31;;;;;;;;;;;14.40;93.00;;;;;;5062111;28;19920;-69
2023/04/02 11:32:16;;;;;;;;;;;14.60;93.30;;;;;;5028059;28;93788;-69
2023/04/02 11:34:47;;;;;;;;;;;14.60;93.00;;;;;;5009958;28;207620;-68
2023/04/02 11:37:32;;;;;;;;;;;14.40;93.70;;;;;;5042878;28;20708;-69
2023/04/02 11:40:10;;;;;;;;;;;15.00;93.50;;;;;;4999678;28;209329;-69
2023/04/02 11:42:39;;;;;;;;;;;14.60;92.40;;;;;;5056107;28;19916;-69
2023/04/02 11:45:23;;;;;;;;;;;14.40;92.40;;;;;;5014224;28;209142;-70
2023/04/02 11:47:58;;;;;;;;;;;14.60;93.30;;;;;;5058559;28;19940;-69
2023/04/02 11:50:28;;;;;;;;;;;15.20;92.60;;;;;;5006430;28;212011;-70
2023/04/02 11:52:56;;;;;;;;;;;15.10;92.40;;;;;;5058456;28;19920;-70
2023/04/02 11:55:23;;;;;;;;;;;15.10;92.40;;;;;;4999459;28;215459;-70
2023/04/02 11:57:52;;;;;;;;;;;15.30;92.10;;;;;;5053773;28;19929;-70
2023/04/02 12:00:22;;;;;;;;;;;15.40;92.60;;;;;;5003608;28;210575;-68
2023/04/02 12:02:58;;;;;;;;;;;15.40;91.10;;;;;;5067551;28;19955;-69
2023/04/02 12:05:35;;;;;;;;;;;15.20;92.10;;;;;;4984029;28;209728;-70
2023/04/02 12:08:16;;;;;;;;;;;15.40;92.40;;;;;;5058693;28;19928;-69
2023/04/02 12:10:51;;;;;;;;;;;15.10;92.30;;;;;;4997999;28;249949;-68
2023/04/02 12:13:18;;;;;;;;;;;15.30;91.70;;;;;;5056172;28;19931;-69
2023/04/02 12:15:45;;;;;;;;;;;15.40;92.60;;;;;;4999460;28;217456;-68
2023/04/02 12:18:22;;;;;;;;;;;14.70;91.90;;;;;;5055132;28;19920;-69
2023/04/02 12:20:52;;;;;;;;;;;14.30;92.20;;;;;;5006419;28;210919;-69
2023/04/02 12:23:19;;;;;;;;;;;14.00;93.30;;;;;;5055671;28;19924;-68
2023/04/02 12:25:51;;;;;;;;;;;14.50;92.50;;;;;;5009249;28;232979;-68
2023/04/02 12:28:18;;;;;;;;;;;14.60;93.00;;;;;;5054608;28;20556;-67
2023/04/02 12:30:45;;;;;;;;;;;15.10;92.10;;;;;;5016562;28;204773;-69
2023/04/02 12:33:32;;;;;;;;;;;14.90;92.40;;;;;;5066980;28;19921;-68
2023/04/02 12:35:59;;;;;;;;;;;14.80;91.70;;;;;;5006403;28;206756;-69
2023/04/02 12:38:27;;;;;;;;;;;14.40;92.10;;;;;;5061344;28;19924;-69
2023/04/02 12:40:54;;;;;;;;;;;14.30;91.90;;;;;;5004397;28;221020;-70
2023/04/02 12:43:34;;;;;;;;;;;14.80;92.20;;;;;;5051711;28;20217;-69
2023/04/02 12:46:04;;;;;;;;;;;15.20;92.00;;;;;;5022307;28;209653;-69
2023/04/02 12:48:30;;;;;;;;;;;14.50;92.30;;;;;;5058955;28;19928;-68
2023/04/02 12:50:56;;;;;;;;;;;14.60;93.10;;;;;;4997947;28;206694;-69
2023/04/02 12:53:25;;;;;;;;;;;14.60;92.30;;;;;;5057803;28;19935;-68
2023/04/02 12:55:51;;;;;;;;;;;14.90;91.70;;;;;;5021004;28;111722;-68
2023/04/02 12:58:37;;;;;;;;;;;14.60;91.80;;;;;;5051033;28;19924;-69
2023/04/02 13:01:17;;;;;;;;;;;14.20;92.40;;;;;;5010558;28;207227;-68
2023/04/02 13:03:57;;;;;;;;;;;14.40;92.50;;;;;;5064818;28;20300;-68
2023/04/02 13:06:25;;;;;;;;;;;14.60;93.10;;;;;;4979774;28;220937;-69
2023/04/02 13:08:51;;;;;;;;;;;14.80;92.60;;;;;;5059983;28;19925;-68
2023/04/02 13:11:18;;;;;;;;;;;14.90;91.50;;;;;;5001434;28;207502;-68
2023/04/02 13:13:45;;;;;;;;;;;15.40;92.10;;;;;;5055468;28;19927;-67
2023/04/02 13:16:14;;;;;;;;;;;15.60;91.50;;;;;;5025797;28;207558;-68
2023/04/02 13:18:40;;;;;;;;;;;15.20;91.70;;;;;;5061064;28;19929;-68
2023/04/02 13:21:26;;;;;;;;;;;15.20;91.30;;;;;;5003893;28;211561;-68
2023/04/02 13:23:52;;;;;;;;;;;15.30;91.40;;;;;;5059018;28;20001;-68
2023/04/02 13:26:23;;;;;;;;;;;15.20;91.60;;;;;;5026980;28;207134;-68
2023/04/02 13:29:03;;;;;;;;;;;15.20;91.90;;;;;;5057186;28;20414;-68
2023/04/02 13:31:29;;;;;;;;;;;14.90;91.70;;;;;;4994645;28;208976;-69
2023/04/02 13:33:55;;;;;;;;;;;15.00;91.20;;;;;;5053566;28;19931;-68
2023/04/02 13:36:21;;;;;;;;;;;15.10;91.60;;;;;;5004782;28;241653;-67
2023/04/02 13:38:47;;;;;;;;;;;15.10;91.30;;;;;;5057641;28;19928;-69
2023/04/02 13:41:22;;;;;;;;;;;15.00;92.00;;;;;;5014306;28;210769;-68
2023/04/02 13:43:51;;;;;;;;;;;14.80;91.90;;;;;;5057110;28;19928;-68
2023/04/02 13:46:20;;;;;;;;;;;14.80;91.60;;;;;;5012253;28;214144;-69
2023/04/02 13:48:47;;;;;;;;;;;14.50;91.40;;;;;;5058381;28;20484;-68
2023/04/02 13:51:15;;;;;;;;;;;14.00;91.70;;;;;;4996277;28;212604;-69
2023/04/02 13:53:41;;;;;;;;;;;14.30;92.10;;;;;;5054493;28;19924;-69
2023/04/02 13:56:07;;;;;;;;;;;15.00;91.50;;;;;;5003204;28;232605;-68
2023/04/02 13:58:33;;;;;;;;;;;15.00;91.70;;;;;;5063585;28;20319;-67
2023/04/02 14:00:59;;;;;;;;;;;14.30;91.40;;;;;;4998196;28;209312;-68
2023/04/02 14:03:25;;;;;;;;;;;14.60;91.70;;;;;;5062764;28;19924;-70
2023/04/02 14:06:20;;;;;;;;;;;15.30;92.40;;;;;;4994905;28;207116;-69
2023/04/02 14:09:05;;;;;;;;;;;16.40;91.70;;;;;;4995871;28;21748;-68
2023/04/02 14:12:06;;;;;;;;;;;16.30;91.10;;;;;;4941461;28;207291;-69
2023/04/02 14:14:49;;;;;;;;;;;15.80;91.20;;;;;;4896662;29;20941;-69
2023/04/02 14:17:15;;;;;;;;;;;16.60;91.50;;;;;;4845549;29;19930;-69
2023/04/02 14:20:01;;;;;;;;;;;16.40;91.30;;;;;;4849658;29;208857;-68
2023/04/02 14:22:30;;;;;;;;;;;16.40;91.00;;;;;;4887140;29;20007;-68
2023/04/02 14:25:14;;;;;;;;;;;16.20;91.30;;;;;;4843937;29;209230;-68
2023/04/02 14:27:49;;;;;;;;;;;15.50;91.30;;;;;;4900397;29;20774;-68
2023/04/02 14:30:25;;;;;;;;;;;15.20;91.10;;;;;;4840154;29;207560;-67
2023/04/02 14:32:55;;;;;;;;;;;15.60;92.40;;;;;;4886495;29;19943;-68
2023/04/02 14:35:23;;;;;;;;;;;16.10;91.00;;;;;;4848614;29;206472;-67
2023/04/02 14:37:51;;;;;;;;;;;15.90;91.20;;;;;;4898550;29;19927;-68
2023/04/02 14:40:28;;;;;;;;;;;15.20;91.30;;;;;;4849799;29;207227;-68